Terminal Aerodrome Forecast
Issued by NWS

Home | Current Version | Previous Version | Text Only | Print | Product List | Glossary On
Versions: 1 2 3 4 5 6 7 8 9 10 11 12 13 14 15 16
309
FTUS42 TJSJ 282334
TAFJBQ
TAF
TJBQ 282334Z 2900/2924 08013KT P6SM SCT016 SCT023 BKN050
     FM290230 09007KT P6SM FEW025
     FM291300 08013KT P6SM FEW025
     FM291800 06013G20KT P6SM VCTS BKN025CB BKN040 OVC070
     FM292230 08010KT P6SM VCSH SCT025 BKN040 BKN080
      AMD NOT SKED 2902/2911=

USA.gov is the U.S. government's official web portal to all federal, state and local government web resources and services.